Time;durP1;ratioP1;P1;durP2;ratioP2;P2;SDS_P1;SDS_P2;PMS_P1;PMS_P2;Temp;Humidity;BMP_temperature;BMP_pressure;BME280_temperature;BME280_humidity;BME280_pressure;Samples;Min_cycle;Max_cycle;Signal;HPM_P1;HPM_P2
2022/11/02 00:04:36;;;;;;;;;;;;;;;12.09;80.36719;101286.9;;;;-75
2022/11/02 00:09:36;;;;;;;;;;;;;;;12.09;80.26953;101284.5;;;;-74
2022/11/02 00:14:36;;;;;;;;;;;;;;;12.05;80.57227;101262.1;;;;-74
2022/11/02 00:19:37;;;;;;;;;;;;;;;12.01;80.1748;101258.9;;;;-75
2022/11/02 00:24:36;;;;;;;;;;;;;;;11.99;80.20313;101274.3;;;;-74
2022/11/02 00:28:16;;;;;;;2.8;1;;;;;;;;;;;;;-74
2022/11/02 00:29:37;;;;;;;;;;;;;;;11.95;80.1416;101272.6;;;;-76
2022/11/02 00:34:36;;;;;;;;;;;;;;;11.93;80.38184;101267.9;;;;-76
2022/11/02 00:39:36;;;;;;;;;;;;;;;11.94;80.88477;101288.1;;;;-75
2022/11/02 00:44:36;;;;;;;;;;;;;;;11.93;81.20313;101279.2;;;;-76
2022/11/02 00:49:36;;;;;;;;;;;;;;;11.88;81.52637;101254;;;;-75
2022/11/02 00:54:36;;;;;;;;;;;;;;;11.85;81.34473;101252.3;;;;-76
2022/11/02 00:58:17;;;;;;;3.6;1;;;;;;;;;;;;;-75
2022/11/02 00:59:36;;;;;;;;;;;;;;;11.8;81.35742;101233.3;;;;-74
2022/11/02 01:04:36;;;;;;;;;;;;;;;11.77;80.97363;101231.1;;;;-75
2022/11/02 01:09:39;;;;;;;;;;;;;;;11.7;81.02832;101229.3;;;;-75
2022/11/02 01:14:37;;;;;;;;;;;;;;;11.65;80.57617;101238.8;;;;-76
2022/11/02 01:19:37;;;;;;;;;;;;;;;11.58;80.54102;101230;;;;-75
2022/11/02 01:24:36;;;;;;;;;;;;;;;11.47;80.35449;101227.3;;;;-76
2022/11/02 01:28:18;;;;;;;3.5;0.6;;;;;;;;;;;;;-75
2022/11/02 01:29:36;;;;;;;;;;;;;;;11.41;79.72168;101226;;;;-75
2022/11/02 01:34:37;;;;;;;;;;;;;;;11.36;79.52344;101241.3;;;;-76
2022/11/02 01:39:36;;;;;;;;;;;;;;;11.33;79.39648;101243.5;;;;-74
2022/11/02 01:44:39;;;;;;;;;;;;;;;11.27;79.17773;101241.4;;;;-74
2022/11/02 01:49:40;;;;;;;;;;;;;;;11.21;79.07715;101256.9;;;;-74
2022/11/02 01:54:39;;;;;;;;;;;;;;;11.17;79.20215;101247.7;;;;-75
2022/11/02 01:58:19;;;;;;;4.5;0.5;;;;;;;;;;;;;-75
2022/11/02 01:59:39;;;;;;;;;;;;;;;11.16;79.06738;101258.3;;;;-74
2022/11/02 02:04:37;;;;;;;;;;;;;;;11.12;79.13867;101244.5;;;;-75
2022/11/02 02:09:37;;;;;;;;;;;;;;;11.06;78.81543;101226.4;;;;-75
2022/11/02 02:14:37;;;;;;;;;;;;;;;11.01;78.91699;101234.4;;;;-74
2022/11/02 02:19:41;;;;;;;;;;;;;;;10.96;78.96484;101224;;;;-75
2022/11/02 02:24:50;;;;;;;;;;;;;;;10.93;79.02441;101227.9;;;;-75
2022/11/02 02:28:22;;;;;;;4.4;0.7;;;;;;;;;;;;;-73
2022/11/02 02:29:39;;;;;;;;;;;;;;;10.92;79.02344;101228.2;;;;-76
2022/11/02 02:34:40;;;;;;;;;;;;;;;10.92;79.32324;101238.1;;;;-75
2022/11/02 02:39:39;;;;;;;;;;;;;;;10.9;79.39648;101244.1;;;;-74
2022/11/02 02:44:39;;;;;;;;;;;;;;;10.9;80.24902;101204.3;;;;-76
2022/11/02 02:49:40;;;;;;;;;;;;;;;10.89;80.72461;101242;;;;-76
2022/11/02 02:54:38;;;;;;;;;;;;;;;10.87;80.85156;101214.4;;;;-74
2022/11/02 02:58:22;;;;;;;3.2;0.6;;;;;;;;;;;;;-75
2022/11/02 02:59:40;;;;;;;;;;;;;;;10.89;81.23145;101245.7;;;;-74
2022/11/02 03:04:36;;;;;;;;;;;;;;;10.86;82.10059;101240.3;;;;-76
2022/11/02 03:09:40;;;;;;;;;;;;;;;10.87;83.13281;101225.8;;;;-76
2022/11/02 03:14:41;;;;;;;;;;;;;;;10.85;83.0957;101186.6;;;;-77
2022/11/02 03:19:40;;;;;;;;;;;;;;;10.81;83.81738;101188.3;;;;-77
2022/11/02 03:24:39;;;;;;;;;;;;;;;10.82;83.69922;101207.7;;;;-76
2022/11/02 03:28:24;;;;;;;5.2;0.9;;;;;;;;;;;;;-80
2022/11/02 03:29:41;;;;;;;;;;;;;;;10.79;84.43359;101255.9;;;;-79
2022/11/02 03:34:41;;;;;;;;;;;;;;;10.78;84.97266;101261.5;;;;-81
2022/11/02 03:39:40;;;;;;;;;;;;;;;10.74;85.20801;101285.8;;;;-80
2022/11/02 03:44:39;;;;;;;;;;;;;;;10.75;85.21094;101272.1;;;;-81
2022/11/02 03:49:41;;;;;;;;;;;;;;;10.73;84.95117;101265.8;;;;-80
2022/11/02 03:54:42;;;;;;;;;;;;;;;10.71;84.64941;101272.2;;;;-80
2022/11/02 03:58:22;;;;;;;6.5;1.2;;;;;;;;;;;;;-81
2022/11/02 03:59:37;;;;;;;;;;;;;;;10.74;84.26758;101281.7;;;;-80
2022/11/02 04:04:36;;;;;;;;;;;;;;;10.71;84.21875;101296.8;;;;-79
2022/11/02 04:09:36;;;;;;;;;;;;;;;10.72;83.92188;101304.9;;;;-78
2022/11/02 04:14:43;;;;;;;;;;;;;;;10.71;83.75391;101329.7;;;;-80
2022/11/02 04:19:37;;;;;;;;;;;;;;;10.7;83.95117;101339;;;;-79
2022/11/02 04:28:23;;;;;;;6.1;0.9;;;;;;;;;;;;;-80
2022/11/02 04:29:37;;;;;;;;;;;;;;;10.65;83.75488;101362.6;;;;-79
2022/11/02 04:34:37;;;;;;;;;;;;;;;10.63;84.07227;101383.7;;;;-80
2022/11/02 04:39:37;;;;;;;;;;;;;;;10.64;84.32813;101378.9;;;;-79
2022/11/02 04:44:41;;;;;;;;;;;;;;;10.65;83.87598;101390.2;;;;-80
2022/11/02 04:49:49;;;;;;;;;;;;;;;10.64;83.86133;101398.9;;;;-80
2022/11/02 04:54:38;;;;;;;;;;;;;;;10.62;83.70508;101411.1;;;;-79
2022/11/02 04:58:28;;;;;;;6.6;1.1;;;;;;;;;;;;;-78
2022/11/02 04:59:41;;;;;;;;;;;;;;;10.61;84.02246;101423.3;;;;-78
2022/11/02 05:04:37;;;;;;;;;;;;;;;10.59;83.93066;101432.6;;;;-79
2022/11/02 05:09:41;;;;;;;;;;;;;;;10.6;83.7002;101442.9;;;;-79
2022/11/02 05:14:38;;;;;;;;;;;;;;;10.6;83.53418;101453.7;;;;-80
2022/11/02 05:19:37;;;;;;;;;;;;;;;10.58;83.49805;101462.2;;;;-80
2022/11/02 05:24:36;;;;;;;;;;;;;;;10.58;83.68555;101469.6;;;;-80
2022/11/02 05:28:25;;;;;;;8;1;;;;;;;;;;;;;-78
2022/11/02 05:29:40;;;;;;;;;;;;;;;10.58;83.59668;101475.6;;;;-79
2022/11/02 05:34:38;;;;;;;;;;;;;;;10.58;83.44238;101488.6;;;;-79
2022/11/02 05:39:42;;;;;;;;;;;;;;;10.6;83.41406;101494.3;;;;-78
2022/11/02 05:44:36;;;;;;;;;;;;;;;10.61;83.24902;101492.1;;;;-77
2022/11/02 05:49:40;;;;;;;;;;;;;;;10.62;83.1748;101505.3;;;;-77
2022/11/02 05:54:36;;;;;;;;;;;;;;;10.62;83.23926;101517.8;;;;-78
2022/11/02 05:58:25;;;;;;;5.9;0.8;;;;;;;;;;;;;-78
2022/11/02 05:59:44;;;;;;;;;;;;;;;10.61;83.22656;101528;;;;-77
2022/11/02 06:04:36;;;;;;;;;;;;;;;10.6;82.68457;101546.9;;;;-77
2022/11/02 06:09:36;;;;;;;;;;;;;;;10.55;82.41797;101563.8;;;;-77
2022/11/02 06:14:37;;;;;;;;;;;;;;;10.5;82.32324;101566;;;;-76
2022/11/02 06:19:36;;;;;;;;;;;;;;;10.48;81.99707;101574.1;;;;-77
2022/11/02 06:24:36;;;;;;;;;;;;;;;10.47;81.85156;101591;;;;-77
2022/11/02 06:28:29;;;;;;;6;0.9;;;;;;;;;;;;;-76
2022/11/02 06:29:37;;;;;;;;;;;;;;;10.47;81.50879;101603.5;;;;-78
2022/11/02 06:34:37;;;;;;;;;;;;;;;10.49;81.19141;101623.9;;;;-76
2022/11/02 06:39:36;;;;;;;;;;;;;;;10.47;81.12207;101627.7;;;;-77
2022/11/02 06:44:36;;;;;;;;;;;;;;;10.5;81.11719;101639.6;;;;-77
2022/11/02 06:49:36;;;;;;;;;;;;;;;10.5;81.11719;101659;;;;-77
2022/11/02 06:54:39;;;;;;;;;;;;;;;10.51;81.23926;101663.1;;;;-76
2022/11/02 06:55:02;;;;;;;;;;;;;;;10.6;81.02344;101669.9;;;;-74
2022/11/02 06:57:32;;;;;;;;;;;;;;;10.5;81.16211;101678.3;;;;-77
2022/11/02 06:58:29;;;;;;;4;0.8;;;;;;;;;;;;;-75
2022/11/02 07:02:33;;;;;;;;;;;;;;;10.52;80.94434;101691.6;;;;-76
2022/11/02 07:07:31;;;;;;;;;;;;;;;10.49;80.9707;101716.2;;;;-77
2022/11/02 07:12:34;;;;;;;;;;;;;;;10.5;81.24902;101732.9;;;;-76
2022/11/02 07:17:33;;;;;;;;;;;;;;;10.55;81.28125;101750.5;;;;-77
2022/11/02 07:22:38;;;;;;;;;;;;;;;10.59;81.13281;101745.5;;;;-76
2022/11/02 07:27:30;;;;;;;;;;;;;;;10.68;80.8623;101753.6;;;;-77
2022/11/02 07:28:28;;;;;;;8;1.1;;;;;;;;;;;;;-77
2022/11/02 07:32:31;;;;;;;;;;;;;;;10.79;80.65918;101760.4;;;;-77
2022/11/02 07:37:31;;;;;;;;;;;;;;;10.9;80.16016;101769.8;;;;-78
2022/11/02 07:42:31;;;;;;;;;;;;;;;10.92;80.1084;101774.7;;;;-77
2022/11/02 07:47:32;;;;;;;;;;;;;;;10.9;79.89648;101795.2;;;;-76
2022/11/02 07:52:32;;;;;;;;;;;;;;;10.92;79.35547;101804.1;;;;-76
2022/11/02 07:57:33;;;;;;;;;;;;;;;10.91;79.40918;101804.3;;;;-74
2022/11/02 07:58:29;;;;;;;8.8;1.3;;;;;;;;;;;;;-76
2022/11/02 08:02:33;;;;;;;;;;;;;;;10.94;79.11523;101808.6;;;;-75
2022/11/02 08:07:31;;;;;;;;;;;;;;;10.99;78.98047;101814.6;;;;-75
2022/11/02 08:12:31;;;;;;;;;;;;;;;11.09;78.73242;101825.6;;;;-77
2022/11/02 08:17:31;;;;;;;;;;;;;;;11.26;78.55273;101821.1;;;;-75
2022/11/02 08:22:35;;;;;;;;;;;;;;;11.53;77.74609;101834.3;;;;-76
2022/11/02 08:27:31;;;;;;;;;;;;;;;11.74;76.54102;101838.4;;;;-77
2022/11/02 08:28:34;;;;;;;5.5;1.1;;;;;;;;;;;;;-76
2022/11/02 08:32:33;;;;;;;;;;;;;;;11.81;77.26172;101839.9;;;;-75
2022/11/02 08:37:32;;;;;;;;;;;;;;;12.11;75.65918;101844.5;;;;-74
2022/11/02 08:42:37;;;;;;;;;;;;;;;12.3;74.95801;101848.4;;;;-76
2022/11/02 08:47:34;;;;;;;;;;;;;;;12.4;74.38574;101858.4;;;;-76
2022/11/02 08:52:31;;;;;;;;;;;;;;;12.53;73.67188;101861.8;;;;-76
2022/11/02 08:57:30;;;;;;;;;;;;;;;12.62;72.91895;101863.4;;;;-76
2022/11/02 08:58:30;;;;;;;6.3;0.9;;;;;;;;;;;;;-76
2022/11/02 09:02:32;;;;;;;;;;;;;;;12.81;71.97949;101873.5;;;;-75
2022/11/02 09:07:30;;;;;;;;;;;;;;;12.96;71.5918;101878.2;;;;-75
2022/11/02 09:12:31;;;;;;;;;;;;;;;13;71.28711;101883.5;;;;-76
2022/11/02 09:17:34;;;;;;;;;;;;;;;13.09;70.61133;101892.1;;;;-75
2022/11/02 09:22:31;;;;;;;;;;;;;;;13.28;71.05371;101901.6;;;;-76
2022/11/02 09:27:32;;;;;;;;;;;;;;;13.39;69.77344;101904.9;;;;-75
2022/11/02 09:28:32;;;;;;;6.7;1;;;;;;;;;;;;;-75
2022/11/02 09:32:32;;;;;;;;;;;;;;;13.47;68.9502;101913.5;;;;-75
2022/11/02 09:37:32;;;;;;;;;;;;;;;13.43;67.61328;101919.1;;;;-76
2022/11/02 09:42:33;;;;;;;;;;;;;;;13.65;67.33301;101934.3;;;;-75
2022/11/02 09:47:32;;;;;;;;;;;;;;;13.56;67.35449;101934.1;;;;-76
2022/11/02 09:52:35;;;;;;;;;;;;;;;13.56;67.82422;101939.6;;;;-75
2022/11/02 09:57:34;;;;;;;;;;;;;;;13.68;67.45117;101946.7;;;;-76
2022/11/02 09:58:36;;;;;;;6.4;0.9;;;;;;;;;;;;;-75
2022/11/02 10:02:38;;;;;;;;;;;;;;;13.84;68.11328;101949.5;;;;-74
2022/11/02 10:07:41;;;;;;;;;;;;;;;13.99;67.41992;101950.9;;;;-75
2022/11/02 10:12:36;;;;;;;;;;;;;;;14.02;66.97656;101947.2;;;;-72
2022/11/02 10:17:33;;;;;;;;;;;;;;;14.11;66.49707;101959.7;;;;-75
2022/11/02 10:22:34;;;;;;;;;;;;;;;14.18;65.99316;101958.9;;;;-75
2022/11/02 10:27:33;;;;;;;;;;;;;;;14.17;65.55273;101958.6;;;;-76
2022/11/02 10:28:36;;;;;;;5.6;0.8;;;;;;;;;;;;;-75
2022/11/02 10:32:31;;;;;;;;;;;;;;;14.22;65.50488;101950.1;;;;-76
2022/11/02 10:37:36;;;;;;;;;;;;;;;14.33;65.1416;101960.4;;;;-75
2022/11/02 10:42:43;;;;;;;;;;;;;;;14.33;65.29883;101957.3;;;;-76
2022/11/02 10:47:33;;;;;;;;;;;;;;;14.39;64.71094;101966.2;;;;-74
2022/11/02 10:52:36;;;;;;;;;;;;;;;14.47;64.56641;101980.5;;;;-76
2022/11/02 10:57:33;;;;;;;;;;;;;;;14.51;64.44922;101972.3;;;;-75
2022/11/02 10:58:40;;;;;;;8.4;0.9;;;;;;;;;;;;;-75
2022/11/02 11:02:35;;;;;;;;;;;;;;;14.53;64.03711;101976.5;;;;-74
2022/11/02 11:07:31;;;;;;;;;;;;;;;14.69;63.75781;101970.9;;;;-75
2022/11/02 11:12:36;;;;;;;;;;;;;;;14.83;64.32617;101983.7;;;;-75
2022/11/02 11:17:32;;;;;;;;;;;;;;;14.78;63.4209;101980.9;;;;-75
2022/11/02 11:22:35;;;;;;;;;;;;;;;14.75;63.66406;101974.5;;;;-78
2022/11/02 11:27:30;;;;;;;;;;;;;;;14.7;63.75879;101971.9;;;;-76
2022/11/02 11:28:41;;;;;;;10.2;1.1;;;;;;;;;;;;;-76
2022/11/02 11:32:34;;;;;;;;;;;;;;;14.54;63.9375;101982.2;;;;-75
2022/11/02 11:37:31;;;;;;;;;;;;;;;14.46;64.35156;101976.3;;;;-76
2022/11/02 11:42:35;;;;;;;;;;;;;;;14.36;64.94336;101969.5;;;;-75
2022/11/02 11:47:33;;;;;;;;;;;;;;;14.29;66.11035;101971.1;;;;-76
2022/11/02 11:52:34;;;;;;;;;;;;;;;14.26;66.14941;101978.7;;;;-75
2022/11/02 11:57:32;;;;;;;;;;;;;;;14.19;65.5791;101988.5;;;;-75
2022/11/02 11:58:40;;;;;;;8;1.2;;;;;;;;;;;;;-75
2022/11/02 12:02:35;;;;;;;;;;;;;;;14.17;64.95996;101968.8;;;;-75
2022/11/02 12:07:36;;;;;;;;;;;;;;;14.06;64.91016;101975;;;;-76
2022/11/02 12:12:36;;;;;;;;;;;;;;;13.98;64.73047;101972.7;;;;-74
2022/11/02 12:17:50;;;;;;;;;;;;;;;14.09;65.15039;101958.2;;;;-75
2022/11/02 12:22:35;;;;;;;;;;;;;;;14.19;65.75879;101949;;;;-75
2022/11/02 12:27:40;;;;;;;;;;;;;;;14.25;65.54297;101952.8;;;;-75
2022/11/02 12:28:45;;;;;;;7.7;1;;;;;;;;;;;;;-75
2022/11/02 12:32:40;;;;;;;;;;;;;;;14.24;66.06836;101951.1;;;;-75
2022/11/02 12:37:37;;;;;;;;;;;;;;;14.42;65.0752;101944.4;;;;-75
2022/11/02 12:42:36;;;;;;;;;;;;;;;14.51;64.42578;101944.9;;;;-74
2022/11/02 12:47:43;;;;;;;;;;;;;;;14.45;64.31641;101948.8;;;;-75
2022/11/02 12:52:38;;;;;;;;;;;;;;;14.53;64.05957;101939.2;;;;-75
2022/11/02 12:57:33;;;;;;;;;;;;;;;14.75;63.08008;101939;;;;-74
2022/11/02 12:58:43;;;;;;;6.7;1.1;;;;;;;;;;;;;-76
2022/11/02 13:02:34;;;;;;;;;;;;;;;14.77;62.87012;101938.2;;;;-75
2022/11/02 13:07:34;;;;;;;;;;;;;;;14.72;63.12109;101930.5;;;;-75
2022/11/02 13:12:33;;;;;;;;;;;;;;;14.68;62.48633;101928;;;;-74
2022/11/02 13:17:42;;;;;;;;;;;;;;;14.66;63.02344;101915.2;;;;-76
2022/11/02 13:22:36;;;;;;;;;;;;;;;14.68;62.74609;101906.4;;;;-75
2022/11/02 13:27:36;;;;;;;;;;;;;;;14.7;63.27441;101905.4;;;;-75
2022/11/02 13:28:46;;;;;;;12.7;2.1;;;;;;;;;;;;;-75
2022/11/02 13:32:34;;;;;;;;;;;;;;;14.68;63.21582;101900.3;;;;-75
2022/11/02 13:37:33;;;;;;;;;;;;;;;14.72;63.43555;101898.2;;;;-75
2022/11/02 13:42:44;;;;;;;;;;;;;;;14.68;62.76855;101895.8;;;;-76
2022/11/02 13:47:41;;;;;;;;;;;;;;;14.64;62.94141;101899.2;;;;-74
2022/11/02 13:52:36;;;;;;;;;;;;;;;14.61;63.12988;101897.5;;;;-75
2022/11/02 13:57:35;;;;;;;;;;;;;;;14.55;63.25488;101892.4;;;;-74
2022/11/02 13:58:49;;;;;;;6.9;1.7;;;;;;;;;;;;;-75
2022/11/02 14:02:32;;;;;;;;;;;;;;;14.55;63.74902;101889.1;;;;-74
2022/11/02 14:07:33;;;;;;;;;;;;;;;14.52;63.27246;101882.7;;;;-76
2022/11/02 14:12:42;;;;;;;;;;;;;;;14.48;63.88281;101875.5;;;;-75
2022/11/02 14:17:33;;;;;;;;;;;;;;;14.38;64.46289;101875;;;;-75
2022/11/02 14:22:38;;;;;;;;;;;;;;;14.4;64.86914;101865.5;;;;-74
2022/11/02 14:27:45;;;;;;;;;;;;;;;14.37;64.82031;101858.2;;;;-74
2022/11/02 14:28:50;;;;;;;6.3;1.2;;;;;;;;;;;;;-79
2022/11/02 14:32:39;;;;;;;;;;;;;;;14.36;65.08789;101856;;;;-75
2022/11/02 14:37:44;;;;;;;;;;;;;;;14.38;65.42773;101862.9;;;;-75
2022/11/02 14:42:42;;;;;;;;;;;;;;;14.35;65.79297;101867.2;;;;-75
2022/11/02 14:47:34;;;;;;;;;;;;;;;14.26;65.94727;101861.5;;;;-75
2022/11/02 14:52:32;;;;;;;;;;;;;;;14.19;66.375;101857.5;;;;-75
2022/11/02 14:57:32;;;;;;;;;;;;;;;14.07;66.75879;101851.5;;;;-75
2022/11/02 14:58:51;;;;;;;7.9;1.5;;;;;;;;;;;;;-77
2022/11/02 15:02:36;;;;;;;;;;;;;;;13.99;66.9043;101847.6;;;;-76
2022/11/02 15:07:35;;;;;;;;;;;;;;;13.86;67.23047;101843.8;;;;-76
2022/11/02 15:12:39;;;;;;;;;;;;;;;13.77;67.99023;101839.6;;;;-75
2022/11/02 15:17:42;;;;;;;;;;;;;;;13.71;68.1582;101838.1;;;;-74
2022/11/02 15:22:39;;;;;;;;;;;;;;;13.6;68.43164;101825.7;;;;-75
2022/11/02 15:27:31;;;;;;;;;;;;;;;13.55;68.88379;101821.9;;;;-71
2022/11/02 15:28:51;;;;;;;9.3;2.1;;;;;;;;;;;;;-73
2022/11/02 15:32:35;;;;;;;;;;;;;;;13.42;69.01953;101819.2;;;;-72
2022/11/02 15:37:34;;;;;;;;;;;;;;;13.35;68.93066;101817;;;;-72
2022/11/02 15:42:37;;;;;;;;;;;;;;;13.26;69.30859;101810;;;;-71
2022/11/02 15:47:35;;;;;;;;;;;;;;;13.17;69.54004;101806.9;;;;-70
2022/11/02 15:52:37;;;;;;;;;;;;;;;13.05;69.63086;101804.9;;;;-72
2022/11/02 15:57:37;;;;;;;;;;;;;;;12.98;69.70898;101799.7;;;;-72
2022/11/02 15:58:59;;;;;;;9.2;2;;;;;;;;;;;;;-72
2022/11/02 16:02:32;;;;;;;;;;;;;;;12.87;70.29395;101804.9;;;;-72
2022/11/02 16:07:32;;;;;;;;;;;;;;;12.8;70.00488;101807.6;;;;-71
2022/11/02 16:12:33;;;;;;;;;;;;;;;12.75;70.05176;101808.7;;;;-71
2022/11/02 16:17:31;;;;;;;;;;;;;;;12.62;70.37891;101805.2;;;;-71
2022/11/02 16:22:32;;;;;;;;;;;;;;;12.56;70.1123;101796.5;;;;-71
2022/11/02 16:27:33;;;;;;;;;;;;;;;12.47;70.24219;101803.8;;;;-71
2022/11/02 16:28:52;;;;;;;7.7;1.5;;;;;;;;;;;;;-72
2022/11/02 16:32:32;;;;;;;;;;;;;;;12.39;70.16309;101802.9;;;;-72
2022/11/02 16:37:34;;;;;;;;;;;;;;;12.31;70.89648;101793.3;;;;-72
2022/11/02 16:42:32;;;;;;;;;;;;;;;12.24;70.99609;101791.8;;;;-76
2022/11/02 16:47:38;;;;;;;;;;;;;;;12.18;70.98535;101785;;;;-74
2022/11/02 16:52:36;;;;;;;;;;;;;;;12.12;70.47656;101790.8;;;;-76
2022/11/02 16:57:34;;;;;;;;;;;;;;;12.07;71.00098;101788.4;;;;-74
2022/11/02 16:58:58;;;;;;;9;1.5;;;;;;;;;;;;;-75
2022/11/02 17:02:34;;;;;;;;;;;;;;;12;70.86816;101789.7;;;;-75
2022/11/02 17:07:32;;;;;;;;;;;;;;;11.92;70.75586;101787.9;;;;-75
2022/11/02 17:12:33;;;;;;;;;;;;;;;11.88;71.17188;101788.4;;;;-75
2022/11/02 17:17:43;;;;;;;;;;;;;;;11.79;71.2793;101781.2;;;;-75
2022/11/02 17:22:32;;;;;;;;;;;;;;;11.75;71.10645;101773.5;;;;-76
2022/11/02 17:27:36;;;;;;;;;;;;;;;11.77;71.55469;101775.9;;;;-75
2022/11/02 17:28:54;;;;;;;7.8;1.5;;;;;;;;;;;;;-75
2022/11/02 17:32:33;;;;;;;;;;;;;;;11.7;71.33105;101770.9;;;;-74
2022/11/02 17:37:32;;;;;;;;;;;;;;;11.69;71.28418;101754.3;;;;-75
2022/11/02 17:47:32;;;;;;;;;;;;;;;11.64;71.14453;101752.9;;;;-75
2022/11/02 17:52:30;;;;;;;;;;;;;;;11.62;71.05176;101751.7;;;;-74
2022/11/02 17:57:30;;;;;;;;;;;;;;;11.6;71.35938;101737.9;;;;-75
2022/11/02 17:58:54;;;;;;;6.6;1.4;;;;;;;;;;;;;-75
2022/11/02 18:02:35;;;;;;;;;;;;;;;11.51;71.32129;101730.2;;;;-75
2022/11/02 18:07:35;;;;;;;;;;;;;;;11.45;71.11328;101718.8;;;;-74
2022/11/02 18:12:33;;;;;;;;;;;;;;;11.42;71.16504;101708.1;;;;-76
2022/11/02 18:17:30;;;;;;;;;;;;;;;11.39;71.41406;101707;;;;-76
2022/11/02 18:22:30;;;;;;;;;;;;;;;11.38;71.24609;101699.6;;;;-76
2022/11/02 18:27:30;;;;;;;;;;;;;;;11.36;71.16406;101695;;;;-76
2022/11/02 18:28:57;;;;;;;8.5;1.4;;;;;;;;;;;;;-75
2022/11/02 18:32:33;;;;;;;;;;;;;;;11.39;71.31445;101692.6;;;;-75
2022/11/02 18:37:31;;;;;;;;;;;;;;;11.36;70.97461;101672.2;;;;-75
2022/11/02 18:42:30;;;;;;;;;;;;;;;11.4;71.09375;101682.3;;;;-75
2022/11/02 18:47:34;;;;;;;;;;;;;;;11.39;70.79199;101669;;;;-76
2022/11/02 18:52:32;;;;;;;;;;;;;;;11.39;70.91406;101657.4;;;;-76
2022/11/02 18:57:30;;;;;;;;;;;;;;;11.36;71.00879;101656.5;;;;-76
2022/11/02 18:59:01;;;;;;;6.3;1.4;;;;;;;;;;;;;-75
2022/11/02 19:02:30;;;;;;;;;;;;;;;11.33;70.94824;101645.4;;;;-76
2022/11/02 19:12:34;;;;;;;;;;;;;;;11.29;71.25488;101624.2;;;;-76
2022/11/02 19:17:34;;;;;;;;;;;;;;;11.3;71.22363;101621.5;;;;-75
2022/11/02 19:22:30;;;;;;;;;;;;;;;11.29;71.08691;101609.6;;;;-75
2022/11/02 19:27:31;;;;;;;;;;;;;;;11.32;71.20215;101607.5;;;;-75
2022/11/02 19:28:57;;;;;;;8.3;1.5;;;;;;;;;;;;;-75
2022/11/02 19:32:30;;;;;;;;;;;;;;;11.31;70.93457;101609.5;;;;-79
2022/11/02 19:37:32;;;;;;;;;;;;;;;11.29;71.14355;101595.6;;;;-75
2022/11/02 19:42:31;;;;;;;;;;;;;;;11.25;71.22559;101577.6;;;;-75
2022/11/02 19:47:30;;;;;;;;;;;;;;;11.24;71.30078;101579.2;;;;-75
2022/11/02 19:52:32;;;;;;;;;;;;;;;11.19;71.20215;101570.1;;;;-76
2022/11/02 19:57:33;;;;;;;;;;;;;;;11.15;71.39648;101555.1;;;;-76
2022/11/02 19:59:01;;;;;;;7.4;1.4;;;;;;;;;;;;;-75
2022/11/02 20:02:31;;;;;;;;;;;;;;;11.16;71.46484;101552.7;;;;-74
2022/11/02 20:07:45;;;;;;;;;;;;;;;11.21;71.24023;101547;;;;-78
2022/11/02 20:12:30;;;;;;;;;;;;;;;11.12;71.48242;101544.5;;;;-76
2022/11/02 20:17:34;;;;;;;;;;;;;;;11.15;71.52051;101534;;;;-76
2022/11/02 20:22:33;;;;;;;;;;;;;;;11.15;71.67578;101526.1;;;;-75
2022/11/02 20:27:32;;;;;;;;;;;;;;;11.11;71.80176;101524.6;;;;-75
2022/11/02 20:29:01;;;;;;;6.2;1.6;;;;;;;;;;;;;-75
2022/11/02 20:32:30;;;;;;;;;;;;;;;11.13;71.81543;101522.4;;;;-75
2022/11/02 20:37:35;;;;;;;;;;;;;;;11.12;71.625;101521.5;;;;-76
2022/11/02 20:42:32;;;;;;;;;;;;;;;11.15;71.63184;101519.4;;;;-75
2022/11/02 20:47:30;;;;;;;;;;;;;;;11.09;72;101514.3;;;;-75
2022/11/02 20:52:37;;;;;;;;;;;;;;;11.11;71.87891;101512.1;;;;-75
2022/11/02 20:57:31;;;;;;;;;;;;;;;11.04;72.03418;101513.3;;;;-76
2022/11/02 20:59:00;;;;;;;8.9;1.6;;;;;;;;;;;;;-74
2022/11/02 21:02:31;;;;;;;;;;;;;;;11.04;72.08008;101507.6;;;;-75
2022/11/02 21:07:33;;;;;;;;;;;;;;;11.04;72.37793;101510.3;;;;-74
2022/11/02 21:17:34;;;;;;;;;;;;;;;10.99;72.22656;101494.9;;;;-76
2022/11/02 21:22:33;;;;;;;;;;;;;;;10.96;72.22168;101498.5;;;;-75
2022/11/02 21:27:38;;;;;;;;;;;;;;;10.94;72.35059;101484;;;;-76
2022/11/02 21:29:05;;;;;;;6.7;1.6;;;;;;;;;;;;;-75
2022/11/02 21:32:31;;;;;;;;;;;;;;;10.92;72.44727;101478.5;;;;-75
2022/11/02 21:37:30;;;;;;;;;;;;;;;10.93;72.55957;101468.9;;;;-75
2022/11/02 21:42:30;;;;;;;;;;;;;;;10.92;72.78223;101457.1;;;;-75
2022/11/02 21:47:33;;;;;;;;;;;;;;;10.91;72.6123;101462.2;;;;-76
2022/11/02 21:52:33;;;;;;;;;;;;;;;10.91;72.58984;101454.3;;;;-75
2022/11/02 21:57:30;;;;;;;;;;;;;;;10.9;73.04492;101444.8;;;;-75
2022/11/02 21:59:04;;;;;;;11.2;1.7;;;;;;;;;;;;;-75
2022/11/02 22:02:30;;;;;;;;;;;;;;;10.9;73.04492;101445.1;;;;-75
2022/11/02 22:08:36;;;;;;;;;;;;;;;10.89;73.15332;101439.7;;;;-74
2022/11/02 22:17:30;;;;;;;;;;;;;;;10.89;72.93262;101430.1;;;;-76
2022/11/02 22:22:30;;;;;;;;;;;;;;;10.86;73.11426;101425.8;;;;-75
2022/11/02 22:27:30;;;;;;;;;;;;;;;10.85;73.22461;101415.8;;;;-74
2022/11/02 22:29:03;;;;;;;8;1.7;;;;;;;;;;;;;-75
2022/11/02 22:32:30;;;;;;;;;;;;;;;10.84;73.24512;101409.6;;;;-75
2022/11/02 22:42:30;;;;;;;;;;;;;;;10.84;73.35449;101380.3;;;;-75
2022/11/02 22:47:31;;;;;;;;;;;;;;;10.87;73.67188;101369.2;;;;-75
2022/11/02 22:52:30;;;;;;;;;;;;;;;10.84;73.38965;101369.9;;;;-74
2022/11/02 22:57:30;;;;;;;;;;;;;;;10.82;73.24219;101357.8;;;;-75
2022/11/02 22:59:03;;;;;;;8.3;1.9;;;;;;;;;;;;;-77
2022/11/02 23:02:30;;;;;;;;;;;;;;;10.8;73.70508;101351.2;;;;-75
2022/11/02 23:07:30;;;;;;;;;;;;;;;10.74;73.57227;101348.6;;;;-75
2022/11/02 23:12:31;;;;;;;;;;;;;;;10.75;73.69629;101344.9;;;;-75
2022/11/02 23:17:30;;;;;;;;;;;;;;;10.71;73.90039;101351.2;;;;-75
2022/11/02 23:27:30;;;;;;;;;;;;;;;10.65;74.04492;101336.3;;;;-75
2022/11/02 23:32:31;;;;;;;;;;;;;;;10.64;74.09863;101338.6;;;;-75
2022/11/02 23:37:30;;;;;;;;;;;;;;;10.59;73.90137;101340.9;;;;-74
2022/11/02 23:42:39;;;;;;;;;;;;;;;10.55;74.16113;101325.6;;;;-75
2022/11/02 23:57:31;;;;;;;;;;;;;;;10.43;74.5957;101297;;;;-75
2022/11/02 23:59:10;;;;;;;8.2;1.5;;;;;;;;;;;;;-75
